createdAt,value
2023-03-24T00:01:26.691Z,101264.63
2023-03-24T00:03:54.728Z,101258.38
2023-03-24T00:06:26.846Z,101259.06
2023-03-24T00:08:56.943Z,101250.00
2023-03-24T00:11:25.629Z,101257.16
2023-03-24T00:13:58.751Z,101262.38
2023-03-24T00:16:26.881Z,101252.09
2023-03-24T00:18:55.111Z,101251.81
2023-03-24T00:21:25.258Z,101249.78
2023-03-24T00:23:55.424Z,101250.44
2023-03-24T00:26:25.651Z,101250.44
2023-03-24T00:28:58.091Z,101244.75
2023-03-24T00:31:26.172Z,101244.81
2023-03-24T00:33:54.788Z,101250.94
2023-03-24T00:36:25.956Z,101244.25
2023-03-24T00:38:54.945Z,101249.41
2023-03-24T00:41:25.022Z,101249.78
2023-03-24T00:43:56.412Z,101251.03
2023-03-24T00:46:30.610Z,101252.72
2023-03-24T00:49:06.092Z,101259.25
2023-03-24T00:51:41.858Z,101259.56
2023-03-24T00:54:11.479Z,101255.09
2023-03-24T00:56:40.822Z,101253.41
2023-03-24T00:59:10.655Z,101253.06
2023-03-24T01:01:41.519Z,101255.59
2023-03-24T01:04:10.541Z,101255.75
2023-03-24T01:06:38.716Z,101263.59
2023-03-24T01:09:07.083Z,101266.72
2023-03-24T01:11:38.942Z,101257.53
2023-03-24T01:14:06.612Z,101258.22
2023-03-24T01:16:34.023Z,101260.28
2023-03-24T01:19:01.718Z,101261.28
2023-03-24T01:21:29.392Z,101270.91
2023-03-24T01:23:56.783Z,101263.16
2023-03-24T01:26:24.229Z,101259.66
2023-03-24T01:28:51.799Z,101263.41
2023-03-24T01:31:19.322Z,101262.03
2023-03-24T01:33:47.054Z,101260.88
2023-03-24T01:36:14.670Z,101264.25
2023-03-24T01:38:42.587Z,101263.50
2023-03-24T01:41:10.148Z,101259.28
2023-03-24T01:43:37.581Z,101264.19
2023-03-24T01:46:19.973Z,101269.16
2023-03-24T01:48:55.245Z,101267.00
2023-03-24T01:51:27.440Z,101263.53
2023-03-24T01:53:57.794Z,101267.22
2023-03-24T01:56:27.330Z,101265.38
2023-03-24T01:59:02.429Z,101265.00
2023-03-24T02:01:32.281Z,101267.56
2023-03-24T02:04:04.526Z,101262.00
2023-03-24T02:06:41.401Z,101262.16
2023-03-24T02:09:10.788Z,101252.03
2023-03-24T02:11:40.799Z,101253.56
2023-03-24T02:14:14.303Z,101261.44
2023-03-24T02:16:51.045Z,101268.72
2023-03-24T02:19:56.199Z,101267.28
2023-03-24T02:23:12.307Z,101272.38
2023-03-24T02:26:01.265Z,101274.69
2023-03-24T02:28:40.531Z,101270.53
2023-03-24T02:31:07.875Z,101276.16
2023-03-24T02:34:12.578Z,101275.28
2023-03-24T02:37:18.910Z,101281.63
2023-03-24T02:39:59.274Z,101279.59
2023-03-24T02:43:05.362Z,101286.16
2023-03-24T02:45:37.337Z,101288.41
2023-03-24T02:48:32.721Z,101297.72
2023-03-24T02:51:03.007Z,101302.69
2023-03-24T02:53:38.890Z,101297.66
2023-03-24T02:56:13.835Z,101293.88
2023-03-24T02:58:46.529Z,101297.34
2023-03-24T03:01:31.658Z,101300.91
2023-03-24T03:04:06.955Z,101302.78
2023-03-24T03:06:40.412Z,101305.59
2023-03-24T03:09:11.883Z,101308.69
2023-03-24T03:11:42.858Z,101304.59
2023-03-24T03:14:35.457Z,101304.31
2023-03-24T03:17:09.112Z,101313.47
2023-03-24T03:19:44.358Z,101304.75
2023-03-24T03:22:18.003Z,101312.91
2023-03-24T03:24:53.228Z,101300.69
2023-03-24T03:27:27.355Z,101305.34
2023-03-24T03:30:09.352Z,101318.31
2023-03-24T03:32:43.384Z,101313.25
2023-03-24T03:35:14.387Z,101308.16
2023-03-24T03:38:19.571Z,101314.06
2023-03-24T03:40:55.811Z,101319.66
2023-03-24T03:43:25.890Z,101314.47
2023-03-24T03:45:55.098Z,101318.69
2023-03-24T03:48:26.542Z,101324.91
2023-03-24T03:51:10.284Z,101315.03
2023-03-24T03:54:09.219Z,101325.44
2023-03-24T03:56:38.546Z,101331.78
2023-03-24T03:59:07.560Z,101330.94
2023-03-24T04:01:38.226Z,101334.00
2023-03-24T04:04:33.360Z,101328.94
2023-03-24T04:07:10.885Z,101333.88
2023-03-24T04:09:49.962Z,101337.78
2023-03-24T04:12:59.971Z,101329.09
2023-03-24T04:15:48.888Z,101328.47
2023-03-24T04:18:19.407Z,101332.72
2023-03-24T04:21:13.913Z,101343.28
2023-03-24T04:23:54.386Z,101337.69
2023-03-24T04:27:03.085Z,101329.78
2023-03-24T04:29:37.114Z,101319.81
2023-03-24T04:32:41.498Z,101322.47
2023-03-24T04:35:33.043Z,101323.47
2023-03-24T04:38:04.873Z,101317.16
2023-03-24T04:40:36.795Z,101310.66
2023-03-24T04:43:09.580Z,101304.41
2023-03-24T04:45:37.475Z,101314.56
2023-03-24T04:48:10.041Z,101318.03
2023-03-24T04:50:54.397Z,101315.31
2023-03-24T04:53:22.966Z,101318.44
2023-03-24T04:55:50.297Z,101321.09
2023-03-24T04:58:22.235Z,101326.97
2023-03-24T05:00:51.307Z,101325.28
2023-03-24T05:03:19.384Z,101323.09
2023-03-24T05:05:50.751Z,101323.41
2023-03-24T05:08:20.109Z,101326.59
2023-03-24T05:10:47.858Z,101313.72
2023-03-24T05:13:16.292Z,101310.00
2023-03-24T05:15:44.278Z,101309.22
2023-03-24T05:18:11.906Z,101319.03
2023-03-24T05:20:41.307Z,101306.53
2023-03-24T05:23:08.777Z,101311.50
2023-03-24T05:25:36.202Z,101323.84
2023-03-24T05:28:03.792Z,101325.13
2023-03-24T05:30:31.687Z,101335.84
2023-03-24T05:32:59.828Z,101331.75
2023-03-24T05:35:27.646Z,101344.97
2023-03-24T05:37:55.297Z,101349.84
2023-03-24T05:40:22.799Z,101364.09
2023-03-24T05:42:51.109Z,101377.50
2023-03-24T05:45:20.191Z,101380.06
2023-03-24T05:47:48.499Z,101384.88
2023-03-24T05:50:16.212Z,101376.41
2023-03-24T05:52:46.667Z,101378.84
2023-03-24T05:55:16.151Z,101381.16
2023-03-24T05:57:45.876Z,101378.88
2023-03-24T06:00:17.423Z,101378.75
2023-03-24T06:02:46.113Z,101375.72
2023-03-24T06:05:13.650Z,101380.47
2023-03-24T06:07:46.467Z,101376.09
2023-03-24T06:10:14.628Z,101374.78
2023-03-24T06:12:45.505Z,101376.31
2023-03-24T06:15:17.471Z,101383.00
2023-03-24T06:17:47.777Z,101372.44
2023-03-24T06:20:16.281Z,101376.81
2023-03-24T06:22:45.496Z,101379.06
2023-03-24T06:25:20.821Z,101377.53
2023-03-24T06:27:48.878Z,101375.84
2023-03-24T06:30:19.067Z,101373.69
2023-03-24T06:32:47.666Z,101376.88
2023-03-24T06:35:16.259Z,101384.09
2023-03-24T06:37:43.996Z,101380.63
2023-03-24T06:40:15.972Z,101381.94
2023-03-24T06:42:43.505Z,101383.28
2023-03-24T06:45:11.963Z,101378.16
2023-03-24T06:47:40.856Z,101382.81
2023-03-24T06:50:08.665Z,101375.66
2023-03-24T06:52:36.652Z,101371.53
2023-03-24T06:55:06.407Z,101368.63
2023-03-24T06:57:34.171Z,101372.44
2023-03-24T07:00:09.376Z,101366.97
2023-03-24T07:02:38.534Z,101369.66
2023-03-24T07:05:07.908Z,101369.16
2023-03-24T07:10:09.157Z,101368.97
2023-03-24T07:12:37.537Z,101373.56
2023-03-24T07:15:05.206Z,101378.84
2023-03-24T07:17:32.656Z,101375.25
2023-03-24T07:20:00.102Z,101369.09
2023-03-24T07:22:38.286Z,101371.25
2023-03-24T07:25:06.534Z,101374.59
2023-03-24T07:27:35.676Z,101381.28
2023-03-24T07:30:03.114Z,101377.31
2023-03-24T07:32:35.105Z,101364.94
2023-03-24T07:35:02.803Z,101363.91
2023-03-24T07:37:31.556Z,101363.91
2023-03-24T07:39:59.314Z,101361.34
2023-03-24T07:42:27.135Z,101357.63
2023-03-24T07:44:54.465Z,101360.59
2023-03-24T07:47:29.152Z,101358.66
2023-03-24T07:49:57.078Z,101347.31
2023-03-24T07:52:24.548Z,101354.91
2023-03-24T07:54:53.567Z,101354.72
2023-03-24T07:57:21.687Z,101355.28
2023-03-24T07:59:51.241Z,101356.63
2023-03-24T08:02:20.173Z,101345.72
2023-03-24T08:04:53.838Z,101352.25
2023-03-24T08:07:24.911Z,101344.44
2023-03-24T08:09:52.467Z,101340.53
2023-03-24T08:12:20.682Z,101335.28
2023-03-24T08:14:48.300Z,101336.19
2023-03-24T08:17:15.854Z,101332.34
2023-03-24T08:19:58.449Z,101324.00
2023-03-24T08:22:27.764Z,101323.53
2023-03-24T08:24:55.185Z,101316.91
2023-03-24T08:27:29.216Z,101320.63
2023-03-24T08:29:56.796Z,101323.16
2023-03-24T08:32:24.702Z,101327.34
2023-03-24T08:34:52.343Z,101325.41
2023-03-24T08:37:19.757Z,101323.72
2023-03-24T08:39:47.655Z,101325.13
2023-03-24T08:42:15.179Z,101325.94
2023-03-24T08:44:42.716Z,101320.56
2023-03-24T08:47:10.371Z,101319.25
2023-03-24T08:49:38.186Z,101317.16
2023-03-24T08:52:05.662Z,101314.66
2023-03-24T08:54:33.585Z,101319.13
2023-03-24T08:57:01.025Z,101317.75
2023-03-24T08:59:29.285Z,101312.97
2023-03-24T09:01:56.803Z,101311.59
2023-03-24T09:04:25.223Z,101297.78
2023-03-24T09:06:53.734Z,101300.41
2023-03-24T09:09:21.252Z,101299.75
2023-03-24T09:11:50.032Z,101295.50
2023-03-24T09:14:17.503Z,101293.91
2023-03-24T09:16:45.389Z,101292.78
2023-03-24T09:19:15.651Z,101290.69
2023-03-24T09:21:47.896Z,101288.84
2023-03-24T09:24:15.413Z,101283.91
2023-03-24T09:26:42.912Z,101273.13
2023-03-24T09:29:10.384Z,101273.00
2023-03-24T09:31:41.424Z,101275.31
2023-03-24T09:34:08.939Z,101277.34
2023-03-24T09:36:36.758Z,101272.75
2023-03-24T09:39:04.240Z,101275.16
2023-03-24T09:41:38.680Z,101276.84
2023-03-24T09:44:21.784Z,101277.47
2023-03-24T09:47:02.075Z,101266.50
2023-03-24T09:49:34.816Z,101263.81
2023-03-24T09:52:06.595Z,101273.69
2023-03-24T09:54:41.152Z,101272.84
2023-03-24T09:57:20.822Z,101271.13
2023-03-24T09:59:48.953Z,101277.06
2023-03-24T10:02:19.813Z,101274.44
2023-03-24T10:04:48.306Z,101270.91
2023-03-24T10:07:47.667Z,101274.13
2023-03-24T10:10:29.941Z,101267.78
2023-03-24T10:13:07.263Z,101266.28
2023-03-24T10:15:55.289Z,101277.59
2023-03-24T10:18:28.969Z,101271.09
2023-03-24T10:21:12.167Z,101285.19
2023-03-24T10:24:17.322Z,101282.91
2023-03-24T10:27:34.299Z,101272.94
2023-03-24T10:30:26.968Z,101258.34
2023-03-24T10:32:58.429Z,101252.16
2023-03-24T10:36:02.179Z,101246.34
2023-03-24T10:38:35.733Z,101239.34
2023-03-24T10:41:04.317Z,101243.50
2023-03-24T10:43:32.429Z,101241.19
2023-03-24T10:46:02.356Z,101226.84
2023-03-24T10:48:51.676Z,101223.50
2023-03-24T10:51:26.731Z,101219.38
2023-03-24T10:54:16.943Z,101214.31
2023-03-24T10:57:03.725Z,101214.34
2023-03-24T10:59:37.473Z,101206.63
2023-03-24T11:02:11.163Z,101218.75
2023-03-24T11:04:41.783Z,101211.84
2023-03-24T11:07:20.997Z,101207.69
2023-03-24T11:10:11.779Z,101212.06
2023-03-24T11:12:41.724Z,101204.63
2023-03-24T11:15:22.497Z,101212.84
2023-03-24T11:18:08.927Z,101212.75
2023-03-24T11:20:39.394Z,101207.31
2023-03-24T11:23:20.032Z,101214.44
2023-03-24T11:26:19.120Z,101209.41
2023-03-24T11:28:52.347Z,101208.72
2023-03-24T11:31:30.986Z,101205.16
2023-03-24T11:34:09.428Z,101211.75
2023-03-24T11:36:45.287Z,101208.63
2023-03-24T11:39:18.124Z,101208.78
2023-03-24T11:42:02.332Z,101203.03
2023-03-24T11:44:38.879Z,101203.91
2023-03-24T11:47:31.745Z,101198.06
2023-03-24T11:50:11.732Z,101195.56
2023-03-24T11:52:49.220Z,101202.31
2023-03-24T11:55:23.134Z,101193.91
2023-03-24T11:57:55.501Z,101197.81
2023-03-24T12:00:30.518Z,101193.56
2023-03-24T12:03:18.652Z,101193.34
2023-03-24T12:05:52.881Z,101194.78
2023-03-24T12:09:04.738Z,101188.34
2023-03-24T12:11:59.522Z,101196.78
2023-03-24T12:14:47.302Z,101190.63
2023-03-24T12:17:24.060Z,101182.88
2023-03-24T12:20:01.150Z,101195.88
2023-03-24T12:23:04.742Z,101183.22
2023-03-24T12:26:00.498Z,101181.88
2023-03-24T12:28:40.668Z,101171.28
2023-03-24T12:31:28.953Z,101167.31
2023-03-24T12:34:26.352Z,101176.34
2023-03-24T12:37:15.031Z,101168.84
2023-03-24T12:40:32.405Z,101172.41
2023-03-24T12:43:25.062Z,101174.47
2023-03-24T12:45:55.498Z,101173.75
2023-03-24T12:49:10.973Z,101175.59
2023-03-24T12:51:51.912Z,101182.03
2023-03-24T12:54:30.164Z,101176.00
2023-03-24T12:57:05.590Z,101172.06
2023-03-24T12:59:53.775Z,101160.41
2023-03-24T13:02:36.163Z,101156.75
2023-03-24T13:05:08.725Z,101154.03
2023-03-24T13:07:44.037Z,101154.91
2023-03-24T13:10:18.337Z,101154.41
2023-03-24T13:13:10.344Z,101152.19
2023-03-24T13:15:52.453Z,101140.38
2023-03-24T13:18:44.531Z,101146.03
2023-03-24T13:21:18.143Z,101144.19
2023-03-24T13:24:09.347Z,101148.06
2023-03-24T13:26:54.351Z,101138.91
2023-03-24T13:29:59.196Z,101138.91
2023-03-24T13:32:35.052Z,101143.09
2023-03-24T13:35:34.892Z,101139.00
2023-03-24T13:38:08.366Z,101137.56
2023-03-24T13:40:39.925Z,101140.75
2023-03-24T13:43:17.852Z,101127.97
2023-03-24T13:46:00.320Z,101133.94
2023-03-24T13:48:41.977Z,101139.31
2023-03-24T13:51:38.271Z,101134.06
2023-03-24T13:54:23.127Z,101130.22
2023-03-24T13:56:53.857Z,101134.56
2023-03-24T13:59:41.741Z,101133.78
2023-03-24T14:02:11.255Z,101128.53
2023-03-24T14:05:01.642Z,101128.09
2023-03-24T14:07:34.047Z,101120.41
2023-03-24T14:10:22.753Z,101119.03
2023-03-24T14:12:56.257Z,101119.50
2023-03-24T14:15:34.603Z,101119.63
2023-03-24T14:18:23.507Z,101118.56
2023-03-24T14:20:57.623Z,101111.13
2023-03-24T14:23:40.287Z,101101.34
2023-03-24T14:26:34.494Z,101109.09
2023-03-24T14:29:02.807Z,101099.28
2023-03-24T14:31:36.695Z,101094.47
2023-03-24T14:34:25.558Z,101096.31
2023-03-24T14:37:03.925Z,101094.78
2023-03-24T14:39:40.777Z,101088.94
2023-03-24T14:42:28.731Z,101089.94
2023-03-24T14:44:58.575Z,101087.19
2023-03-24T14:47:29.871Z,101096.69
2023-03-24T14:50:00.985Z,101089.25
2023-03-24T14:52:40.011Z,101081.53
2023-03-24T14:55:12.602Z,101087.06
2023-03-24T14:57:43.128Z,101080.78
2023-03-24T15:00:20.333Z,101085.22
2023-03-24T15:02:52.246Z,101096.00
2023-03-24T15:05:31.262Z,101092.59
2023-03-24T15:08:22.392Z,101088.50
2023-03-24T15:11:02.241Z,101085.16
2023-03-24T15:13:50.008Z,101083.03
2023-03-24T15:16:24.008Z,101077.38
2023-03-24T15:21:41.113Z,101090.75
2023-03-24T15:24:21.338Z,101091.16
2023-03-24T15:26:54.350Z,101089.50
2023-03-24T15:29:23.514Z,101087.00
2023-03-24T15:31:51.331Z,101085.72
2023-03-24T15:34:42.268Z,101089.09
2023-03-24T15:37:41.627Z,101086.53
2023-03-24T15:40:27.561Z,101086.59
2023-03-24T15:42:57.884Z,101082.38
2023-03-24T15:45:30.100Z,101085.16
2023-03-24T15:48:05.808Z,101092.09
2023-03-24T15:50:39.408Z,101084.34
2023-03-24T15:53:23.665Z,101095.28
2023-03-24T15:56:05.246Z,101088.53
2023-03-24T15:58:47.615Z,101092.63
2023-03-24T16:01:20.136Z,101088.94
2023-03-24T16:03:48.556Z,101085.06
2023-03-24T16:06:26.814Z,101081.59
2023-03-24T16:08:54.328Z,101091.22
2023-03-24T16:11:22.521Z,101083.69
2023-03-24T16:13:54.535Z,101082.47
2023-03-24T16:16:28.244Z,101085.00
2023-03-24T16:18:57.036Z,101092.88
2023-03-24T16:21:27.165Z,101089.63
2023-03-24T16:23:58.586Z,101090.25
2023-03-24T16:26:29.689Z,101090.06
2023-03-24T16:29:20.165Z,101094.22
2023-03-24T16:31:49.909Z,101094.88
2023-03-24T16:34:19.418Z,101091.13
2023-03-24T16:36:52.159Z,101093.41
2023-03-24T16:39:27.984Z,101096.75
2023-03-24T16:42:00.855Z,101099.88
2023-03-24T16:44:28.814Z,101103.00
2023-03-24T16:46:56.364Z,101106.78
2023-03-24T16:49:24.385Z,101095.88
2023-03-24T16:51:53.302Z,101102.06
2023-03-24T16:54:25.460Z,101108.28
2023-03-24T16:56:53.472Z,101114.53
2023-03-24T16:59:20.886Z,101111.59
2023-03-24T17:01:53.523Z,101116.91
2023-03-24T17:04:25.890Z,101114.88
2023-03-24T17:06:57.856Z,101115.03
2023-03-24T17:09:25.851Z,101122.66
2023-03-24T17:11:57.511Z,101123.34
2023-03-24T17:14:32.774Z,101127.72
2023-03-24T17:17:02.959Z,101135.84
2023-03-24T17:19:31.272Z,101135.38
2023-03-24T17:22:04.509Z,101134.72
2023-03-24T17:24:36.762Z,101139.91
2023-03-24T17:27:12.648Z,101159.19
2023-03-24T17:29:40.935Z,101148.16
2023-03-24T17:32:09.253Z,101153.13
2023-03-24T17:34:38.022Z,101144.81
2023-03-24T17:37:06.192Z,101155.16
2023-03-24T17:39:33.567Z,101160.47
2023-03-24T17:42:05.586Z,101167.81
2023-03-24T17:44:34.028Z,101165.53
2023-03-24T17:47:01.723Z,101174.16
2023-03-24T17:49:48.960Z,101174.78
2023-03-24T17:52:16.857Z,101177.19
2023-03-24T17:54:45.904Z,101182.66
2023-03-24T17:57:13.368Z,101177.25
2023-03-24T17:59:44.470Z,101184.28
2023-03-24T18:02:13.673Z,101186.34
2023-03-24T18:04:41.013Z,101183.50
2023-03-24T18:07:09.653Z,101185.09
2023-03-24T18:09:37.996Z,101183.63
2023-03-24T18:12:13.023Z,101189.41
2023-03-24T18:14:40.990Z,101191.81
2023-03-24T18:17:09.617Z,101199.00
2023-03-24T18:19:41.712Z,101202.91
2023-03-24T18:22:09.799Z,101191.38
2023-03-24T18:24:37.302Z,101193.13
2023-03-24T18:27:09.875Z,101190.44
2023-03-24T18:29:39.615Z,101192.94
2023-03-24T18:32:07.117Z,101191.75
2023-03-24T18:34:36.038Z,101195.25
2023-03-24T18:37:03.534Z,101196.28
2023-03-24T18:39:30.933Z,101197.94
2023-03-24T18:41:58.389Z,101207.41
2023-03-24T18:44:25.731Z,101209.09
2023-03-24T18:46:55.625Z,101206.84
2023-03-24T18:49:23.091Z,101199.16
2023-03-24T18:51:50.616Z,101210.03
2023-03-24T18:54:18.141Z,101213.81
2023-03-24T18:56:45.883Z,101211.47
2023-03-24T18:59:16.285Z,101201.56
2023-03-24T19:01:47.331Z,101201.25
2023-03-24T19:04:15.493Z,101204.09
2023-03-24T19:06:43.415Z,101198.94
2023-03-24T19:09:20.255Z,101204.91
2023-03-24T19:11:48.271Z,101202.00
2023-03-24T19:14:16.079Z,101206.47
2023-03-24T19:16:45.747Z,101196.25
2023-03-24T19:19:13.203Z,101193.91
2023-03-24T19:21:41.942Z,101205.88
2023-03-24T19:24:09.531Z,101199.00
2023-03-24T19:26:37.366Z,101188.84
2023-03-24T19:29:07.115Z,101194.16
2023-03-24T19:31:35.253Z,101207.56
2023-03-24T19:34:02.995Z,101213.81
2023-03-24T19:36:32.153Z,101220.78
2023-03-24T19:39:01.959Z,101214.19
2023-03-24T19:41:29.556Z,101219.91
2023-03-24T19:43:57.075Z,101215.38
2023-03-24T19:46:29.494Z,101214.91
2023-03-24T19:48:57.092Z,101213.09
2023-03-24T19:51:24.926Z,101212.47
2023-03-24T19:53:53.327Z,101211.66
2023-03-24T19:56:21.982Z,101220.72
2023-03-24T19:58:53.246Z,101227.47
2023-03-24T20:01:21.598Z,101219.94
2023-03-24T20:03:49.442Z,101217.34
2023-03-24T20:06:19.633Z,101218.47
2023-03-24T20:08:49.579Z,101214.22
2023-03-24T20:11:17.102Z,101214.38
2023-03-24T20:13:48.480Z,101217.09
2023-03-24T20:16:16.574Z,101221.16
2023-03-24T20:18:44.185Z,101214.25
2023-03-24T20:21:22.719Z,101209.84
2023-03-24T20:23:51.567Z,101200.25
2023-03-24T20:26:20.629Z,101206.03
2023-03-24T20:28:48.381Z,101218.13
2023-03-24T20:31:16.517Z,101216.13
2023-03-24T20:33:44.501Z,101208.41
2023-03-24T20:36:12.541Z,101208.06
2023-03-24T20:38:40.074Z,101213.44
2023-03-24T20:41:08.333Z,101209.41
2023-03-24T20:43:37.889Z,101211.91
2023-03-24T20:46:09.802Z,101220.00
2023-03-24T20:48:38.570Z,101226.75
2023-03-24T20:51:06.129Z,101225.56
2023-03-24T20:53:35.045Z,101219.16
2023-03-24T20:56:08.460Z,101224.03
2023-03-24T20:58:38.133Z,101225.06
2023-03-24T21:01:08.245Z,101226.03
2023-03-24T21:03:36.744Z,101223.84
2023-03-24T21:06:04.906Z,101217.66
2023-03-24T21:08:32.515Z,101215.59
2023-03-24T21:11:02.846Z,101217.13
2023-03-24T21:13:37.344Z,101228.53
2023-03-24T21:16:08.267Z,101229.72
2023-03-24T21:18:44.056Z,101224.34
2023-03-24T21:21:13.091Z,101224.69
2023-03-24T21:23:41.875Z,101226.72
2023-03-24T21:26:17.037Z,101231.06
2023-03-24T21:28:46.072Z,101224.53
2023-03-24T21:31:20.086Z,101217.47
2023-03-24T21:33:48.174Z,101210.06
2023-03-24T21:36:15.775Z,101227.03
2023-03-24T21:38:43.805Z,101213.44
2023-03-24T21:41:12.348Z,101211.41
2023-03-24T21:43:41.090Z,101204.81
2023-03-24T21:46:14.955Z,101210.88
2023-03-24T21:48:50.196Z,101215.72
2023-03-24T21:51:24.111Z,101211.56
2023-03-24T21:53:55.808Z,101211.03
2023-03-24T21:56:23.681Z,101208.50
2023-03-24T21:58:54.759Z,101195.72
2023-03-24T22:01:23.690Z,101191.88
2023-03-24T22:03:54.376Z,101201.63
2023-03-24T22:06:25.066Z,101194.94
2023-03-24T22:08:53.283Z,101201.31
2023-03-24T22:11:20.812Z,101200.66
2023-03-24T22:13:53.228Z,101197.97
2023-03-24T22:16:20.847Z,101203.31
2023-03-24T22:18:48.364Z,101209.31
2023-03-24T22:21:18.088Z,101205.25
2023-03-24T22:23:46.112Z,101206.84
2023-03-24T22:26:15.516Z,101198.63
2023-03-24T22:28:44.919Z,101206.31
2023-03-24T22:31:16.299Z,101206.31
2023-03-24T22:33:44.698Z,101202.94
2023-03-24T22:36:12.556Z,101197.44
2023-03-24T22:38:40.556Z,101197.13
2023-03-24T22:41:12.264Z,101200.97
2023-03-24T22:43:42.411Z,101193.72
2023-03-24T22:46:10.888Z,101199.09
2023-03-24T22:48:40.464Z,101204.28
2023-03-24T22:51:09.665Z,101195.53
2023-03-24T22:53:40.419Z,101197.47
2023-03-24T22:56:09.179Z,101189.88
2023-03-24T22:58:36.574Z,101189.13
2023-03-24T23:01:06.244Z,101182.75
2023-03-24T23:03:35.014Z,101196.34
2023-03-24T23:06:04.480Z,101195.56
2023-03-24T23:08:34.156Z,101190.00
2023-03-24T23:11:01.608Z,101186.84
2023-03-24T23:13:30.882Z,101177.59
2023-03-24T23:16:10.731Z,101178.94
2023-03-24T23:18:38.684Z,101177.03
2023-03-24T23:21:11.893Z,101176.56
2023-03-24T23:23:40.899Z,101180.00
2023-03-24T23:26:25.436Z,101173.31
2023-03-24T23:28:54.346Z,101176.31
2023-03-24T23:31:25.862Z,101162.16
2023-03-24T23:33:56.926Z,101176.03
2023-03-24T23:36:26.421Z,101172.81
2023-03-24T23:38:54.793Z,101172.28
2023-03-24T23:41:24.535Z,101177.31
2023-03-24T23:43:53.052Z,101180.75
2023-03-24T23:46:20.947Z,101175.47
2023-03-24T23:48:49.271Z,101171.31
2023-03-24T23:51:18.672Z,101169.50
2023-03-24T23:53:46.217Z,101171.63
2023-03-24T23:56:21.820Z,101170.50
2023-03-24T23:58:49.457Z,101169.97
